Terminal Aerodrome Forecast
Issued by NWS Raleigh/Durham, NC

Home | Current Version | Previous Version | Text Only | Print | Product List | Glossary On
Versions: 1 2 3 4 5 6 7 8 9 10 11 12 13 14 15 16 17 18 19 20 21 22
000
FTUS42 KRAH 300740 AAB
TAFRDU
TAF AMD
KRDU 300740Z 3008/3106 02005KT 1/2SM FG VCSH OVC003
      TEMPO 3008/3012 4SM BR
     FM301300 02005KT P6SM VCSH SCT008 OVC012
     FM301700 03005KT 6SM -SHRA BR BKN025 BKN080
     FM310100 VRB04KT 5SM BR BKN015 OVC035=

USA.gov is the U.S. government's official web portal to all federal, state and local government web resources and services.